createdAt,value
2022-12-01T00:01:13.211Z,100804.16
2022-12-01T00:04:14.777Z,100799.44
2022-12-01T00:07:16.295Z,100801.22
2022-12-01T00:10:26.759Z,100808.69
2022-12-01T00:13:28.363Z,100820.00
2022-12-01T00:16:30.277Z,100822.94
2022-12-01T00:19:31.958Z,100823.59
2022-12-01T00:22:33.555Z,100825.03
2022-12-01T00:25:35.088Z,100819.91
2022-12-01T00:28:36.677Z,100819.38
2022-12-01T00:31:38.439Z,100829.94
2022-12-01T00:34:40.210Z,100830.75
2022-12-01T00:37:41.898Z,100824.47
2022-12-01T00:40:43.430Z,100827.16
2022-12-01T00:43:44.964Z,100822.53
2022-12-01T00:46:46.504Z,100831.13
2022-12-01T00:49:48.164Z,100830.47
2022-12-01T00:52:49.919Z,100831.22
2022-12-01T00:55:53.910Z,100832.50
2022-12-01T00:58:55.526Z,100841.13
2022-12-01T01:01:57.268Z,100835.41
2022-12-01T01:04:58.815Z,100844.88
2022-12-01T01:08:00.402Z,100806.16
2022-12-01T01:11:02.243Z,100830.41
2022-12-01T01:14:04.114Z,100826.28
2022-12-01T01:17:05.707Z,100829.31
2022-12-01T01:20:07.839Z,100831.69
2022-12-01T01:23:09.388Z,100831.91
2022-12-01T01:26:14.441Z,100832.31
2022-12-01T01:29:15.965Z,100829.28
2022-12-01T01:32:17.523Z,100828.34
2022-12-01T01:35:19.056Z,100836.94
2022-12-01T01:38:20.585Z,100821.00
2022-12-01T01:41:22.997Z,100826.06
2022-12-01T01:44:48.172Z,100827.13
2022-12-01T01:47:52.125Z,100831.34
2022-12-01T01:50:53.659Z,100829.06
2022-12-01T01:53:58.333Z,100826.34
2022-12-01T01:57:00.915Z,100823.31
2022-12-01T02:00:07.965Z,100834.59
2022-12-01T02:03:13.383Z,100828.94
2022-12-01T02:06:15.197Z,100822.38
2022-12-01T02:09:16.715Z,100824.66
2022-12-01T02:12:33.171Z,100813.25
2022-12-01T02:15:55.885Z,100813.41
2022-12-01T02:19:28.817Z,100814.94
2022-12-01T02:22:59.684Z,100822.94
2022-12-01T02:26:06.983Z,100808.97
2022-12-01T02:29:20.791Z,100819.72
2022-12-01T02:32:25.300Z,100810.78
2022-12-01T02:35:35.708Z,100805.06
2022-12-01T02:38:47.159Z,100803.91
2022-12-01T02:41:52.380Z,100811.91
2022-12-01T02:44:54.533Z,100812.91
2022-12-01T02:47:57.551Z,100817.84
2022-12-01T02:51:03.316Z,100811.81
2022-12-01T02:54:05.491Z,100800.66
2022-12-01T02:57:11.534Z,100802.75
2022-12-01T03:00:13.804Z,100801.12
2022-12-01T03:03:43.693Z,100800.78
2022-12-01T03:06:57.056Z,100801.97
2022-12-01T03:10:04.447Z,100811.16
2022-12-01T03:13:27.699Z,100813.75
2022-12-01T03:16:51.432Z,100813.09
2022-12-01T03:20:24.822Z,100818.81
2022-12-01T03:23:29.129Z,100810.00
2022-12-01T03:26:32.379Z,100807.44
2022-12-01T03:29:40.247Z,100809.53
2022-12-01T03:32:47.456Z,100799.59
2022-12-01T03:35:55.765Z,100795.47
2022-12-01T03:39:02.714Z,100788.41
2022-12-01T03:42:11.328Z,100793.59
2022-12-01T03:45:36.700Z,100791.44
2022-12-01T03:48:39.430Z,100784.91
2022-12-01T03:51:56.146Z,100786.06
2022-12-01T03:55:03.313Z,100793.88
2022-12-01T03:58:11.089Z,100790.66
2022-12-01T04:01:12.770Z,100792.31
2022-12-01T04:04:15.221Z,100794.19
2022-12-01T04:07:16.776Z,100754.06
2022-12-01T04:10:18.443Z,100780.06
2022-12-01T04:13:23.313Z,100774.47
2022-12-01T04:16:24.904Z,100781.59
2022-12-01T04:19:26.460Z,100787.06
2022-12-01T04:22:27.983Z,100793.88
2022-12-01T04:25:29.516Z,100798.97
2022-12-01T04:28:31.343Z,100798.91
2022-12-01T04:31:32.995Z,100798.25
2022-12-01T04:34:34.663Z,100796.97
2022-12-01T04:37:36.641Z,100769.16
2022-12-01T04:40:38.917Z,100791.75
2022-12-01T04:43:40.990Z,100790.09
2022-12-01T04:46:42.784Z,100793.06
2022-12-01T04:49:44.342Z,100793.78
2022-12-01T04:52:46.629Z,100809.53
2022-12-01T04:55:48.156Z,100810.81
2022-12-01T04:58:49.881Z,100815.56
2022-12-01T05:01:51.464Z,100827.06
2022-12-01T05:04:53.037Z,100829.75
2022-12-01T05:07:54.721Z,100812.00
2022-12-01T05:10:56.843Z,100786.47
2022-12-01T05:13:59.041Z,100806.72
2022-12-01T05:17:00.657Z,100804.19
2022-12-01T05:20:20.598Z,100808.56
2022-12-01T05:23:22.142Z,100807.91
2022-12-01T05:26:23.681Z,100807.53
2022-12-01T05:29:25.311Z,100770.72
2022-12-01T05:32:26.833Z,100787.19
2022-12-01T05:35:28.363Z,100802.97
2022-12-01T05:38:29.886Z,100806.25
2022-12-01T05:41:31.419Z,100808.16
2022-12-01T05:44:32.968Z,100801.06
2022-12-01T05:47:34.506Z,100803.31
2022-12-01T05:50:38.529Z,100807.84
2022-12-01T05:53:40.149Z,100815.56
2022-12-01T05:56:41.745Z,100808.38
2022-12-01T05:59:43.304Z,100813.13
2022-12-01T06:02:44.897Z,100819.41
2022-12-01T06:05:46.526Z,100824.34
2022-12-01T06:08:48.068Z,100824.06
2022-12-01T06:11:52.491Z,100831.44
2022-12-01T06:14:54.268Z,100835.34
2022-12-01T06:17:59.155Z,100833.41
2022-12-01T06:21:01.209Z,100831.84
2022-12-01T06:24:02.747Z,100826.63
2022-12-01T06:27:04.444Z,100837.72
2022-12-01T06:30:06.787Z,100834.19
2022-12-01T06:33:08.397Z,100825.66
2022-12-01T06:36:10.915Z,100830.53
2022-12-01T06:39:14.664Z,100822.78
2022-12-01T06:42:16.209Z,100833.22
2022-12-01T06:45:17.942Z,100832.69
2022-12-01T06:48:19.517Z,100833.50
2022-12-01T06:51:21.200Z,100829.75
2022-12-01T06:54:22.747Z,100840.56
2022-12-01T06:57:24.546Z,100828.19
2022-12-01T07:00:26.325Z,100836.09
2022-12-01T07:03:27.852Z,100827.31
2022-12-01T07:06:30.734Z,100831.94
2022-12-01T07:09:32.251Z,100826.50
2022-12-01T07:12:33.924Z,100820.47
2022-12-01T07:15:35.475Z,100831.94
2022-12-01T07:18:37.615Z,100771.12
2022-12-01T07:21:39.144Z,100834.53
2022-12-01T07:24:40.739Z,100836.31
2022-12-01T07:27:42.251Z,100845.09
2022-12-01T07:30:43.877Z,100845.22
2022-12-01T07:33:45.820Z,100847.00
2022-12-01T07:36:47.376Z,100844.16
2022-12-01T07:39:49.176Z,100843.47
2022-12-01T07:42:50.966Z,100826.44
2022-12-01T07:45:52.542Z,100836.25
2022-12-01T07:48:55.468Z,100839.00
2022-12-01T07:51:57.018Z,100841.50
2022-12-01T07:54:58.646Z,100843.41
2022-12-01T07:58:00.817Z,100852.34
2022-12-01T08:01:10.327Z,100849.69
2022-12-01T08:04:12.163Z,100850.81
2022-12-01T08:07:13.687Z,100850.81
2022-12-01T08:10:15.295Z,100854.09
2022-12-01T08:13:17.583Z,100854.88
2022-12-01T08:16:22.490Z,100857.87
2022-12-01T08:19:25.849Z,100856.78
2022-12-01T08:22:27.389Z,100855.19
2022-12-01T08:25:29.858Z,100853.81
2022-12-01T08:28:31.674Z,100853.28
2022-12-01T08:31:35.649Z,100855.44
2022-12-01T08:34:41.424Z,100853.81
2022-12-01T08:37:42.957Z,100859.75
2022-12-01T08:40:44.509Z,100851.31
2022-12-01T08:44:01.841Z,100855.06
2022-12-01T08:47:03.563Z,100858.50
2022-12-01T08:50:06.327Z,100865.97
2022-12-01T08:53:07.872Z,100856.38
2022-12-01T08:56:16.215Z,100855.03
2022-12-01T08:59:17.744Z,100856.06
2022-12-01T09:02:25.026Z,100854.31
2022-12-01T09:05:26.661Z,100836.28
2022-12-01T09:08:31.258Z,100851.28
2022-12-01T09:11:32.913Z,100854.16
2022-12-01T09:14:39.969Z,100851.31
2022-12-01T09:17:41.523Z,100853.91
2022-12-01T09:20:43.042Z,100853.06
2022-12-01T09:23:44.886Z,100846.47
2022-12-01T09:26:46.470Z,100830.00
2022-12-01T09:29:48.332Z,100845.00
2022-12-01T09:32:50.071Z,100841.88
2022-12-01T09:35:51.749Z,100843.47
2022-12-01T09:38:53.357Z,100840.41
2022-12-01T09:41:58.558Z,100840.34
2022-12-01T09:45:02.700Z,100832.69
2022-12-01T09:48:05.185Z,100844.94
2022-12-01T09:51:21.803Z,100841.59
2022-12-01T09:54:23.367Z,100828.56
2022-12-01T09:57:35.299Z,100838.38
2022-12-01T10:00:39.705Z,100827.94
2022-12-01T10:03:48.417Z,100825.62
2022-12-01T10:07:02.320Z,100819.13
2022-12-01T10:10:07.784Z,100821.16
2022-12-01T10:13:21.488Z,100814.38
2022-12-01T10:16:30.780Z,100821.56
2022-12-01T10:19:54.799Z,100819.75
2022-12-01T10:23:08.050Z,100817.84
2022-12-01T10:26:14.733Z,100806.25
2022-12-01T10:29:43.828Z,100801.50
2022-12-01T10:32:57.623Z,100789.75
2022-12-01T10:35:59.191Z,100780.97
2022-12-01T10:39:02.360Z,100791.16
2022-12-01T10:42:12.237Z,100796.41
2022-12-01T10:45:40.865Z,100793.13
2022-12-01T10:48:54.479Z,100780.88
2022-12-01T10:51:57.613Z,100775.53
2022-12-01T10:55:00.178Z,100786.44
2022-12-01T10:58:09.243Z,100782.97
2022-12-01T11:01:25.987Z,100782.84
2022-12-01T11:04:45.862Z,100782.25
2022-12-01T11:07:47.964Z,100773.75
2022-12-01T11:10:49.894Z,100770.25
2022-12-01T11:13:51.770Z,100763.03
2022-12-01T11:16:54.109Z,100759.63
2022-12-01T11:19:55.935Z,100754.34
2022-12-01T11:23:21.004Z,100733.00
2022-12-01T11:26:32.517Z,100757.41
2022-12-01T11:29:38.343Z,100738.97
2022-12-01T11:32:40.108Z,100748.34
2022-12-01T11:35:47.568Z,100754.47
2022-12-01T11:38:49.411Z,100752.56
2022-12-01T11:41:56.012Z,100752.88
2022-12-01T11:45:22.050Z,100748.19
2022-12-01T11:48:31.220Z,100745.31
2022-12-01T11:51:37.624Z,100743.72
2022-12-01T11:54:55.471Z,100742.09
2022-12-01T11:58:02.191Z,100738.06
2022-12-01T12:01:04.686Z,100745.00
2022-12-01T12:04:21.462Z,100748.56
2022-12-01T12:07:22.965Z,100746.81
2022-12-01T12:10:46.896Z,100731.81
2022-12-01T12:14:05.253Z,100742.00
2022-12-01T12:18:01.263Z,100740.06
2022-12-01T12:21:31.036Z,100747.12
2022-12-01T12:24:50.354Z,100736.50
2022-12-01T12:28:03.419Z,100736.97
2022-12-01T12:31:23.381Z,100732.78
2022-12-01T12:34:54.220Z,100732.44
2022-12-01T12:38:20.543Z,100733.41
2022-12-01T12:41:39.322Z,100735.75
2022-12-01T12:44:43.862Z,100732.03
2022-12-01T12:48:08.175Z,100737.34
2022-12-01T12:51:16.290Z,100748.06
2022-12-01T12:54:43.022Z,100735.84
2022-12-01T12:57:52.543Z,100736.53
2022-12-01T13:00:59.279Z,100735.66
2022-12-01T13:04:11.358Z,100737.91
2022-12-01T13:07:42.614Z,100738.53
2022-12-01T13:10:58.146Z,100728.69
2022-12-01T13:14:06.843Z,100732.19
2022-12-01T13:17:22.562Z,100727.00
2022-12-01T13:20:27.804Z,100726.66
2022-12-01T13:23:29.652Z,100725.16
2022-12-01T13:26:31.765Z,100733.19
2022-12-01T13:29:38.413Z,100730.88
2022-12-01T13:32:44.079Z,100727.81
2022-12-01T13:36:08.588Z,100727.97
2022-12-01T13:39:22.495Z,100718.97
2022-12-01T13:42:27.315Z,100725.44
2022-12-01T13:45:32.900Z,100727.38
2022-12-01T13:48:37.507Z,100729.78
2022-12-01T13:52:16.449Z,100730.56
2022-12-01T13:55:55.573Z,100728.37
2022-12-01T13:58:57.114Z,100731.91
2022-12-01T14:02:21.484Z,100733.72
2022-12-01T14:05:23.014Z,100729.22
2022-12-01T14:08:24.647Z,100716.00
2022-12-01T14:11:27.850Z,100722.13
2022-12-01T14:14:35.898Z,100719.41
2022-12-01T14:17:38.227Z,100719.31
2022-12-01T14:20:45.662Z,100713.06
2022-12-01T14:24:05.336Z,100726.31
2022-12-01T14:27:08.006Z,100719.00
2022-12-01T14:30:46.602Z,100722.28
2022-12-01T14:33:59.350Z,100718.81
2022-12-01T14:37:08.889Z,100720.94
2022-12-01T14:40:18.126Z,100728.31
2022-12-01T14:43:38.599Z,100717.38
2022-12-01T14:46:45.577Z,100722.72
2022-12-01T14:50:12.545Z,100721.31
2022-12-01T14:53:35.762Z,100715.31
2022-12-01T14:56:37.689Z,100715.81
2022-12-01T14:59:39.266Z,100728.31
2022-12-01T15:02:47.857Z,100718.97
2022-12-01T15:05:49.619Z,100726.00
2022-12-01T15:09:34.022Z,100724.81
2022-12-01T15:12:36.613Z,100729.47
2022-12-01T15:15:50.936Z,100727.84
2022-12-01T15:18:52.835Z,100723.28
2022-12-01T15:21:54.436Z,100728.00
2022-12-01T15:25:14.534Z,100724.44
2022-12-01T15:28:30.407Z,100728.56
2022-12-01T15:31:32.353Z,100702.41
2022-12-01T15:34:42.631Z,100731.28
2022-12-01T15:37:45.029Z,100724.94
2022-12-01T15:41:21.124Z,100724.50
2022-12-01T15:44:19.932Z,100720.44
2022-12-01T15:47:36.909Z,100719.75
2022-12-01T15:50:46.298Z,100725.19
2022-12-01T15:53:54.090Z,100727.03
2022-12-01T15:56:58.554Z,100729.06
2022-12-01T16:00:00.151Z,100731.63
2022-12-01T16:03:02.313Z,100729.53
2022-12-01T16:06:03.925Z,100726.00
2022-12-01T16:09:07.846Z,100731.72
2022-12-01T16:12:09.320Z,100728.81
2022-12-01T16:15:18.413Z,100726.41
2022-12-01T16:18:38.178Z,100721.53
2022-12-01T16:21:59.697Z,100725.06
2022-12-01T16:25:01.231Z,100728.37
2022-12-01T16:28:04.356Z,100722.22
2022-12-01T16:31:10.169Z,100730.41
2022-12-01T16:34:44.620Z,100729.59
2022-12-01T16:37:41.523Z,100732.31
2022-12-01T16:40:43.576Z,100731.50
2022-12-01T16:44:05.456Z,100732.91
2022-12-01T16:47:16.303Z,100735.19
2022-12-01T16:50:20.459Z,100730.66
2022-12-01T16:53:22.235Z,100724.97
2022-12-01T16:56:23.714Z,100724.69
2022-12-01T16:59:25.335Z,100726.59
2022-12-01T17:02:26.963Z,100724.75
2022-12-01T17:05:28.625Z,100727.25
2022-12-01T17:08:30.447Z,100731.87
2022-12-01T17:11:32.515Z,100699.41
2022-12-01T17:14:34.121Z,100731.38
2022-12-01T17:17:36.097Z,100731.69
2022-12-01T17:20:37.715Z,100731.97
2022-12-01T17:23:39.881Z,100723.84
2022-12-01T17:26:41.421Z,100729.78
2022-12-01T17:29:46.056Z,100736.91
2022-12-01T17:32:47.990Z,100739.09
2022-12-01T17:35:49.891Z,100744.53
2022-12-01T17:38:51.488Z,100744.84
2022-12-01T17:41:56.082Z,100748.63
2022-12-01T17:44:57.595Z,100754.38
2022-12-01T17:47:59.133Z,100751.44
2022-12-01T17:51:00.652Z,100745.84
2022-12-01T17:54:02.181Z,100752.41
2022-12-01T17:57:03.760Z,100746.78
2022-12-01T18:00:06.026Z,100738.66
2022-12-01T18:03:08.039Z,100749.31
2022-12-01T18:06:09.862Z,100746.63
2022-12-01T18:09:11.485Z,100753.69
2022-12-01T18:12:13.026Z,100747.78
2022-12-01T18:15:14.615Z,100749.37
2022-12-01T18:18:16.186Z,100755.09
2022-12-01T18:21:20.268Z,100754.31
2022-12-01T18:24:21.952Z,100753.22
2022-12-01T18:27:23.517Z,100746.72
2022-12-01T18:30:25.053Z,100753.25
2022-12-01T18:33:26.593Z,100743.47
2022-12-01T18:36:28.839Z,100751.87
2022-12-01T18:39:30.454Z,100756.22
2022-12-01T18:42:31.982Z,100758.38
2022-12-01T18:45:33.528Z,100753.25
2022-12-01T18:48:35.299Z,100757.03
2022-12-01T18:51:37.888Z,100760.00
2022-12-01T18:54:39.416Z,100748.91
2022-12-01T18:57:40.942Z,100760.81
2022-12-01T19:00:42.516Z,100755.13
2022-12-01T19:03:44.073Z,100761.91
2022-12-01T19:06:46.654Z,100758.63
2022-12-01T19:09:48.632Z,100762.41
2022-12-01T19:12:50.512Z,100760.81
2022-12-01T19:15:52.112Z,100759.44
2022-12-01T19:18:53.902Z,100766.25
2022-12-01T19:21:55.694Z,100766.00
2022-12-01T19:24:57.506Z,100764.34
2022-12-01T19:27:59.247Z,100774.94
2022-12-01T19:31:05.840Z,100766.53
2022-12-01T19:34:07.527Z,100773.00
2022-12-01T19:37:09.049Z,100765.41
2022-12-01T19:40:11.090Z,100765.16
2022-12-01T19:43:12.638Z,100753.25
2022-12-01T19:46:16.421Z,100758.66
2022-12-01T19:49:18.010Z,100771.94
2022-12-01T19:52:19.540Z,100770.59
2022-12-01T19:55:21.307Z,100774.91
2022-12-01T19:58:24.879Z,100773.31
2022-12-01T20:01:27.178Z,100769.50
2022-12-01T20:04:28.769Z,100764.34
2022-12-01T20:07:30.662Z,100763.00
2022-12-01T20:10:32.260Z,100771.12
2022-12-01T20:13:35.463Z,100775.72
2022-12-01T20:16:37.083Z,100774.41
2022-12-01T20:19:38.765Z,100778.97
2022-12-01T20:22:40.299Z,100773.31
2022-12-01T20:25:41.841Z,100770.03
2022-12-01T20:28:45.580Z,100785.47
2022-12-01T20:31:47.983Z,100777.59
2022-12-01T20:34:49.832Z,100777.62
2022-12-01T20:37:51.549Z,100779.81
2022-12-01T20:40:53.121Z,100778.72
2022-12-01T20:43:54.678Z,100780.88
2022-12-01T20:46:56.920Z,100782.53
2022-12-01T20:49:58.638Z,100798.25
2022-12-01T20:53:00.214Z,100792.53
2022-12-01T20:56:04.706Z,100798.50
2022-12-01T20:59:06.456Z,100800.91
2022-12-01T21:02:09.930Z,100783.78
2022-12-01T21:05:11.888Z,100795.41
2022-12-01T21:08:13.854Z,100801.56
2022-12-01T21:11:44.380Z,100799.84
2022-12-01T21:14:59.653Z,100803.34
2022-12-01T21:18:05.612Z,100799.31
2022-12-01T21:21:23.155Z,100807.97
2022-12-01T21:24:31.955Z,100806.87
2022-12-01T21:27:35.828Z,100805.28
2022-12-01T21:30:37.643Z,100808.00
2022-12-01T21:33:39.667Z,100813.47
2022-12-01T21:36:41.210Z,100809.69
2022-12-01T21:39:42.877Z,100807.22
2022-12-01T21:42:44.519Z,100803.34
2022-12-01T21:45:46.400Z,100804.44
2022-12-01T21:48:48.081Z,100806.41
2022-12-01T21:51:51.917Z,100815.28
2022-12-01T21:54:53.668Z,100808.22
2022-12-01T21:57:55.341Z,100814.72
2022-12-01T22:00:58.104Z,100813.06
2022-12-01T22:04:02.665Z,100809.34
2022-12-01T22:07:05.275Z,100813.75
2022-12-01T22:10:44.452Z,100819.22
2022-12-01T22:14:06.301Z,100820.09
2022-12-01T22:17:07.746Z,100829.03
2022-12-01T22:20:21.378Z,100824.75
2022-12-01T22:23:33.786Z,100822.56
2022-12-01T22:26:41.096Z,100822.34
2022-12-01T22:29:45.232Z,100821.00
2022-12-01T22:32:59.282Z,100820.19
2022-12-01T22:36:00.990Z,100801.47
2022-12-01T22:39:26.645Z,100801.22
2022-12-01T22:42:34.709Z,100799.56
2022-12-01T22:45:36.367Z,100806.37
2022-12-01T22:48:40.870Z,100806.34
2022-12-01T22:51:48.148Z,100800.91
2022-12-01T22:54:50.272Z,100801.44
2022-12-01T22:57:52.458Z,100798.75
2022-12-01T23:00:55.565Z,100794.94
2022-12-01T23:04:22.897Z,100800.59
2022-12-01T23:07:37.149Z,100796.25
2022-12-01T23:10:39.936Z,100795.12
2022-12-01T23:13:41.499Z,100800.81
2022-12-01T23:16:43.042Z,100802.97
2022-12-01T23:19:44.715Z,100792.97
2022-12-01T23:22:47.281Z,100760.19
2022-12-01T23:25:50.077Z,100795.66
2022-12-01T23:28:51.595Z,100791.84
2022-12-01T23:31:53.214Z,100795.38
2022-12-01T23:34:59.962Z,100798.88
2022-12-01T23:38:02.037Z,100798.31
2022-12-01T23:41:07.043Z,100758.22
2022-12-01T23:44:28.247Z,100798.84
2022-12-01T23:47:30.304Z,100778.50
2022-12-01T23:50:31.853Z,100806.69
2022-12-01T23:53:33.700Z,100802.06
2022-12-01T23:56:38.130Z,100781.75
2022-12-01T23:59:39.674Z,100813.75
